createdAt,value
2022-11-07T00:00:49.903Z,9.93
2022-11-07T00:01:46.345Z,9.96
2022-11-07T00:02:46.843Z,9.95
2022-11-07T00:03:45.710Z,9.95
2022-11-07T00:04:45.970Z,9.95
2022-11-07T00:05:46.212Z,9.92
2022-11-07T00:06:46.462Z,9.88
2022-11-07T00:07:45.659Z,9.91
2022-11-07T00:08:45.949Z,9.91
2022-11-07T00:09:46.167Z,9.91
2022-11-07T00:10:46.561Z,9.93
2022-11-07T00:11:45.633Z,9.92
2022-11-07T00:12:45.862Z,9.92
2022-11-07T00:13:46.126Z,9.92
2022-11-07T00:14:46.373Z,9.89
2022-11-07T00:15:45.568Z,9.91
2022-11-07T00:16:46.865Z,9.92
2022-11-07T00:17:46.040Z,9.93
2022-11-07T00:18:46.259Z,9.92
2022-11-07T00:19:45.588Z,9.96
2022-11-07T00:20:45.838Z,9.96
2022-11-07T00:21:46.120Z,9.96
2022-11-07T00:22:45.323Z,9.95
2022-11-07T00:23:45.590Z,10.01
2022-11-07T00:24:45.877Z,10.01
2022-11-07T00:25:46.100Z,10.02
2022-11-07T00:26:45.336Z,10.04
2022-11-07T00:27:45.736Z,10.06
2022-11-07T00:28:45.874Z,10.07
2022-11-07T00:29:45.083Z,10.06
2022-11-07T00:30:45.356Z,10.04
2022-11-07T00:31:45.579Z,10.04
2022-11-07T00:32:45.830Z,10.06
2022-11-07T00:33:46.075Z,10.07
2022-11-07T00:34:45.294Z,10.11
2022-11-07T00:35:45.545Z,10.11
2022-11-07T00:36:45.779Z,10.09
2022-11-07T00:37:45.004Z,10.09
2022-11-07T00:38:46.455Z,10.13
2022-11-07T00:39:45.522Z,10.16
2022-11-07T00:40:45.773Z,10.17
2022-11-07T00:41:44.991Z,10.16
2022-11-07T00:42:45.267Z,10.11
2022-11-07T00:43:45.527Z,10.13
2022-11-07T00:44:45.773Z,10.14
2022-11-07T00:45:46.020Z,10.13
2022-11-07T00:46:45.227Z,10.14
2022-11-07T00:47:45.466Z,10.13
2022-11-07T00:48:45.723Z,10.13
2022-11-07T00:49:46.375Z,10.10
2022-11-07T00:50:45.154Z,10.09
2022-11-07T00:51:45.394Z,10.07
2022-11-07T00:52:45.631Z,10.02
2022-11-07T00:53:46.853Z,10.02
2022-11-07T00:54:45.076Z,10.04
2022-11-07T00:55:45.464Z,10.09
2022-11-07T00:56:45.590Z,10.10
2022-11-07T00:57:45.785Z,10.09
2022-11-07T00:58:44.994Z,10.09
2022-11-07T00:59:45.256Z,10.10
2022-11-07T01:00:45.516Z,10.10
2022-11-07T01:01:44.905Z,10.10
2022-11-07T01:02:45.108Z,10.09
2022-11-07T01:03:45.233Z,10.06
2022-11-07T01:04:45.481Z,10.06
2022-11-07T01:05:45.736Z,10.07
2022-11-07T01:06:45.022Z,10.06
2022-11-07T01:07:45.206Z,10.02
2022-11-07T01:08:45.444Z,9.99
2022-11-07T01:09:46.716Z,10.01
2022-11-07T01:10:44.894Z,10.04
2022-11-07T01:11:45.161Z,10.10
2022-11-07T01:12:45.424Z,10.10
2022-11-07T01:13:44.638Z,10.07
2022-11-07T01:14:44.874Z,10.06
2022-11-07T01:15:45.122Z,10.06
2022-11-07T01:16:45.532Z,10.07
2022-11-07T01:17:44.616Z,10.10
2022-11-07T01:18:44.875Z,10.14
2022-11-07T01:19:45.127Z,10.10
2022-11-07T01:20:45.394Z,10.11
2022-11-07T01:21:44.602Z,10.17
2022-11-07T01:22:45.254Z,10.17
2022-11-07T01:23:45.124Z,10.16
2022-11-07T01:24:45.384Z,10.20
2022-11-07T01:25:44.590Z,10.17
2022-11-07T01:26:44.854Z,10.18
2022-11-07T01:27:45.093Z,10.14
2022-11-07T01:28:44.493Z,10.11
2022-11-07T01:29:44.567Z,10.11
2022-11-07T01:30:44.868Z,10.10
2022-11-07T01:31:45.092Z,10.10
2022-11-07T01:32:44.324Z,10.07
2022-11-07T01:33:44.609Z,10.07
2022-11-07T01:34:44.866Z,10.10
2022-11-07T01:35:45.104Z,10.14
2022-11-07T01:36:44.325Z,10.17
2022-11-07T01:37:44.568Z,10.18
2022-11-07T01:38:44.821Z,10.16
2022-11-07T01:39:45.110Z,10.14
2022-11-07T01:40:44.279Z,10.13
2022-11-07T01:41:44.518Z,10.10
2022-11-07T01:42:44.774Z,10.11
2022-11-07T01:43:45.044Z,10.09
2022-11-07T01:44:44.286Z,10.09
2022-11-07T01:45:44.535Z,10.10
2022-11-07T01:46:44.783Z,10.09
2022-11-07T01:47:45.047Z,10.14
2022-11-07T01:48:44.264Z,10.18
2022-11-07T01:49:44.544Z,10.13
2022-11-07T01:50:44.825Z,10.18
2022-11-07T01:51:45.066Z,10.24
2022-11-07T01:52:44.297Z,10.26
2022-11-07T01:53:44.546Z,10.26
2022-11-07T01:54:44.777Z,10.26
2022-11-07T01:55:45.077Z,10.28
2022-11-07T01:56:44.341Z,10.29
2022-11-07T01:57:44.580Z,10.31
2022-11-07T01:58:44.787Z,10.31
2022-11-07T01:59:45.051Z,10.29
2022-11-07T02:00:44.286Z,10.25
2022-11-07T02:01:44.653Z,10.28
2022-11-07T02:02:44.924Z,10.25
2022-11-07T02:03:43.995Z,10.25
2022-11-07T02:04:44.265Z,10.25
2022-11-07T02:05:44.540Z,10.28
2022-11-07T02:06:44.783Z,10.29
2022-11-07T02:07:44.146Z,10.31
2022-11-07T02:08:44.268Z,10.29
2022-11-07T02:09:47.619Z,10.32
2022-11-07T02:10:44.736Z,10.32
2022-11-07T02:11:43.974Z,10.32
2022-11-07T02:12:44.697Z,10.32
2022-11-07T02:13:44.497Z,10.26
2022-11-07T02:14:43.724Z,10.25
2022-11-07T02:15:45.077Z,10.25
2022-11-07T02:16:44.317Z,10.26
2022-11-07T02:17:44.555Z,10.26
2022-11-07T02:18:44.860Z,10.26
2022-11-07T02:19:44.012Z,10.25
2022-11-07T02:20:44.261Z,10.22
2022-11-07T02:21:44.505Z,10.25
2022-11-07T02:22:43.730Z,10.25
2022-11-07T02:23:43.989Z,10.24
2022-11-07T02:24:44.645Z,10.24
2022-11-07T02:25:44.507Z,10.24
2022-11-07T02:26:43.730Z,10.22
2022-11-07T02:27:43.979Z,10.26
2022-11-07T02:28:44.214Z,10.26
2022-11-07T02:29:44.447Z,10.28
2022-11-07T02:30:44.722Z,10.26
2022-11-07T02:31:43.867Z,10.26
2022-11-07T02:32:44.071Z,10.25
2022-11-07T02:33:44.289Z,10.26
2022-11-07T02:34:44.499Z,10.26
2022-11-07T02:35:43.688Z,10.29
2022-11-07T02:36:43.971Z,10.29
2022-11-07T02:37:44.140Z,10.26
2022-11-07T02:38:44.349Z,10.24
2022-11-07T02:39:44.554Z,10.24
2022-11-07T02:40:43.728Z,10.24
2022-11-07T02:41:43.968Z,10.24
2022-11-07T02:42:44.165Z,10.20
2022-11-07T02:43:44.367Z,10.20
2022-11-07T02:44:43.528Z,10.22
2022-11-07T02:45:43.739Z,10.24
2022-11-07T02:46:45.011Z,10.25
2022-11-07T02:47:44.149Z,10.22
2022-11-07T02:48:43.310Z,10.25
2022-11-07T02:49:43.517Z,10.25
2022-11-07T02:50:43.730Z,10.26
2022-11-07T02:51:43.932Z,10.24
2022-11-07T02:52:44.430Z,10.25
2022-11-07T02:53:43.311Z,10.24
2022-11-07T02:54:43.529Z,10.24
2022-11-07T02:55:43.719Z,10.22
2022-11-07T02:56:43.921Z,10.22
2022-11-07T02:57:44.132Z,10.28
2022-11-07T02:58:43.329Z,10.28
2022-11-07T02:59:43.505Z,10.31
2022-11-07T03:00:43.687Z,10.35
2022-11-07T03:01:44.045Z,10.42
2022-11-07T03:02:44.320Z,10.36
2022-11-07T03:03:43.305Z,10.35
2022-11-07T03:04:48.846Z,10.36
2022-11-07T03:05:44.732Z,10.42
2022-11-07T03:06:43.941Z,10.44
2022-11-07T03:07:43.124Z,10.46
2022-11-07T03:08:43.389Z,10.43
2022-11-07T03:09:43.560Z,10.43
2022-11-07T03:10:43.790Z,10.39
2022-11-07T03:11:44.009Z,10.39
2022-11-07T03:12:43.177Z,10.43
2022-11-07T03:13:43.399Z,10.44
2022-11-07T03:14:43.651Z,10.44
2022-11-07T03:15:43.880Z,10.43
2022-11-07T03:16:44.003Z,10.43
2022-11-07T03:17:43.181Z,10.39
2022-11-07T03:18:43.372Z,10.36
2022-11-07T03:19:43.582Z,10.38
2022-11-07T03:20:43.762Z,10.42
2022-11-07T03:21:42.980Z,10.39
2022-11-07T03:22:43.149Z,10.44
2022-11-07T03:23:43.368Z,10.46
2022-11-07T03:24:43.560Z,10.44
2022-11-07T03:25:43.750Z,10.46
2022-11-07T03:26:42.910Z,10.42
2022-11-07T03:27:43.249Z,10.38
2022-11-07T03:28:43.324Z,10.34
2022-11-07T03:29:43.532Z,10.32
2022-11-07T03:30:43.720Z,10.29
2022-11-07T03:31:42.887Z,10.24
2022-11-07T03:32:44.045Z,10.22
2022-11-07T03:33:43.782Z,10.18
2022-11-07T03:34:43.501Z,10.20
2022-11-07T03:35:42.678Z,10.24
2022-11-07T03:36:42.862Z,10.25
2022-11-07T03:37:43.091Z,10.24
2022-11-07T03:38:43.302Z,10.20
2022-11-07T03:39:43.662Z,10.20
2022-11-07T03:40:43.777Z,10.20
2022-11-07T03:41:42.931Z,10.22
2022-11-07T03:42:43.143Z,10.20
2022-11-07T03:43:43.390Z,10.22
2022-11-07T03:44:42.552Z,10.24
2022-11-07T03:45:42.932Z,10.25
2022-11-07T03:46:42.961Z,10.29
2022-11-07T03:47:43.182Z,10.32
2022-11-07T03:48:43.412Z,10.36
2022-11-07T03:49:43.623Z,10.36
2022-11-07T03:50:42.802Z,10.36
2022-11-07T03:51:43.116Z,10.35
2022-11-07T03:52:43.244Z,10.34
2022-11-07T03:53:42.433Z,10.31
2022-11-07T03:54:42.652Z,10.26
2022-11-07T03:55:42.875Z,10.24
2022-11-07T03:56:43.112Z,10.25
2022-11-07T03:57:43.602Z,10.26
2022-11-07T03:58:42.472Z,10.26
2022-11-07T03:59:42.692Z,10.25
2022-11-07T04:00:42.912Z,10.26
2022-11-07T04:01:43.226Z,10.25
2022-11-07T04:02:44.409Z,10.26
2022-11-07T04:03:42.542Z,10.29
2022-11-07T04:04:42.746Z,10.32
2022-11-07T04:05:42.955Z,10.34
2022-11-07T04:06:43.183Z,10.35
2022-11-07T04:07:42.369Z,10.32
2022-11-07T04:08:42.572Z,10.32
2022-11-07T04:09:42.784Z,10.32
2022-11-07T04:10:42.984Z,10.26
2022-11-07T04:11:42.156Z,10.28
2022-11-07T04:12:42.392Z,10.31
2022-11-07T04:13:43.547Z,10.28
2022-11-07T04:14:42.927Z,10.34
2022-11-07T04:15:43.033Z,10.35
2022-11-07T04:16:43.184Z,10.34
2022-11-07T04:17:42.440Z,10.35
2022-11-07T04:18:42.644Z,10.38
2022-11-07T04:19:42.859Z,10.38
2022-11-07T04:20:43.217Z,10.38
2022-11-07T04:21:42.265Z,10.42
2022-11-07T04:22:42.466Z,10.46
2022-11-07T04:23:42.684Z,10.51
2022-11-07T04:24:45.802Z,10.55
2022-11-07T04:25:42.086Z,10.57
2022-11-07T04:26:42.473Z,10.57
2022-11-07T04:27:42.534Z,10.57
2022-11-07T04:28:42.734Z,10.55
2022-11-07T04:29:42.964Z,10.55
2022-11-07T04:30:42.134Z,10.58
2022-11-07T04:31:42.365Z,10.62
2022-11-07T04:32:42.803Z,10.63
2022-11-07T04:33:42.775Z,10.68
2022-11-07T04:34:41.929Z,10.69
2022-11-07T04:35:42.141Z,10.73
2022-11-07T04:36:42.354Z,10.75
2022-11-07T04:37:42.569Z,10.75
2022-11-07T04:38:42.924Z,10.75
2022-11-07T04:39:41.954Z,10.76
2022-11-07T04:40:42.124Z,10.81
2022-11-07T04:41:42.307Z,10.88
2022-11-07T04:42:42.542Z,10.90
2022-11-07T04:43:42.729Z,10.93
2022-11-07T04:44:41.936Z,10.93
2022-11-07T04:45:41.810Z,10.94
2022-11-07T04:46:42.315Z,10.99
2022-11-07T04:47:42.552Z,11.01
2022-11-07T04:48:42.813Z,10.98
2022-11-07T04:49:42.066Z,10.94
2022-11-07T04:50:42.266Z,10.98
2022-11-07T04:51:42.517Z,10.98
2022-11-07T04:52:42.756Z,10.99
2022-11-07T04:53:41.976Z,11.01
2022-11-07T04:54:42.191Z,11.01
2022-11-07T04:55:42.541Z,10.99
2022-11-07T04:56:41.636Z,11.02
2022-11-07T04:57:41.868Z,11.02
2022-11-07T04:58:42.088Z,11.02
2022-11-07T04:59:42.336Z,11.03
2022-11-07T05:00:43.020Z,11.05
2022-11-07T05:01:41.844Z,11.03
2022-11-07T05:02:42.093Z,11.06
2022-11-07T05:03:42.483Z,11.06
2022-11-07T05:04:42.476Z,11.05
2022-11-07T05:05:41.706Z,11.11
2022-11-07T05:06:42.000Z,11.12
2022-11-07T05:07:42.246Z,11.12
2022-11-07T05:08:41.446Z,11.09
2022-11-07T05:09:41.722Z,11.08
2022-11-07T05:10:41.970Z,11.08
2022-11-07T05:11:41.678Z,11.11
2022-11-07T05:12:41.968Z,11.13
2022-11-07T05:13:42.171Z,11.17
2022-11-07T05:14:41.358Z,11.20
2022-11-07T05:15:41.617Z,11.23
2022-11-07T05:16:41.831Z,11.24
2022-11-07T05:17:42.068Z,11.23
2022-11-07T05:18:41.238Z,11.23
2022-11-07T05:19:41.453Z,11.23
2022-11-07T05:20:41.660Z,11.19
2022-11-07T05:21:41.878Z,11.13
2022-11-07T05:22:42.050Z,11.11
2022-11-07T05:23:42.268Z,11.11
2022-11-07T05:24:41.403Z,11.12
2022-11-07T05:25:41.587Z,11.12
2022-11-07T05:26:41.803Z,11.13
2022-11-07T05:27:42.010Z,11.16
2022-11-07T05:28:41.184Z,11.16
2022-11-07T05:29:41.451Z,11.13
2022-11-07T05:30:41.624Z,11.20
2022-11-07T05:31:41.810Z,11.23
2022-11-07T05:32:41.988Z,11.26
2022-11-07T05:33:41.200Z,11.24
2022-11-07T05:34:41.360Z,11.19
2022-11-07T05:35:41.564Z,11.19
2022-11-07T05:36:41.725Z,11.16
2022-11-07T05:37:41.908Z,11.13
2022-11-07T05:38:41.071Z,11.19
2022-11-07T05:39:41.286Z,11.21
2022-11-07T05:40:41.520Z,11.19
2022-11-07T05:41:41.966Z,11.19
2022-11-07T05:42:41.922Z,11.19
2022-11-07T05:43:41.090Z,11.16
2022-11-07T05:44:41.308Z,11.13
2022-11-07T05:45:41.506Z,11.12
2022-11-07T05:46:41.719Z,11.09
2022-11-07T05:47:41.940Z,11.12
2022-11-07T05:48:41.087Z,11.12
2022-11-07T05:49:43.366Z,11.09
2022-11-07T05:50:41.476Z,11.11
2022-11-07T05:51:41.685Z,11.11
2022-11-07T05:52:40.924Z,11.12
2022-11-07T05:53:41.084Z,11.12
2022-11-07T05:54:41.250Z,11.11
2022-11-07T05:55:41.430Z,11.08
2022-11-07T05:56:41.619Z,11.08
2022-11-07T05:57:40.752Z,11.09
2022-11-07T05:58:40.945Z,11.09
2022-11-07T05:59:41.178Z,11.09
2022-11-07T06:00:41.343Z,11.12
2022-11-07T06:01:41.648Z,11.13
2022-11-07T06:02:40.830Z,11.21
2022-11-07T06:03:40.909Z,11.17
2022-11-07T06:04:41.092Z,11.16
2022-11-07T06:05:41.482Z,11.17
2022-11-07T06:06:41.512Z,11.20
2022-11-07T06:07:41.698Z,11.21
2022-11-07T06:08:40.853Z,11.21
2022-11-07T06:09:45.197Z,11.24
2022-11-07T06:10:41.246Z,11.28
2022-11-07T06:11:41.493Z,11.30
2022-11-07T06:12:40.602Z,11.31
2022-11-07T06:13:40.814Z,11.30
2022-11-07T06:14:41.011Z,11.35
2022-11-07T06:15:41.217Z,11.33
2022-11-07T06:16:41.412Z,11.36
2022-11-07T06:17:40.582Z,11.38
2022-11-07T06:18:41.918Z,11.35
2022-11-07T06:19:41.994Z,11.36
2022-11-07T06:20:41.123Z,11.31
2022-11-07T06:21:41.351Z,11.33
2022-11-07T06:22:40.511Z,11.31
2022-11-07T06:23:40.765Z,11.27
2022-11-07T06:24:40.897Z,11.28
2022-11-07T06:25:41.107Z,11.27
2022-11-07T06:26:41.284Z,11.28
2022-11-07T06:27:40.452Z,11.27
2022-11-07T06:28:40.649Z,11.26
2022-11-07T06:29:40.918Z,11.24
2022-11-07T06:30:41.088Z,11.35
2022-11-07T06:31:41.262Z,11.28
2022-11-07T06:32:40.432Z,11.30
2022-11-07T06:33:40.629Z,11.33
2022-11-07T06:34:40.829Z,11.31
2022-11-07T06:35:41.150Z,11.31
2022-11-07T06:36:41.246Z,11.28
2022-11-07T06:37:40.365Z,11.31
2022-11-07T06:38:40.596Z,11.33
2022-11-07T06:39:40.784Z,11.38
2022-11-07T06:40:41.024Z,11.36
2022-11-07T06:41:40.202Z,11.30
2022-11-07T06:42:40.395Z,11.31
2022-11-07T06:43:40.622Z,11.35
2022-11-07T06:44:40.836Z,11.33
2022-11-07T06:45:40.054Z,11.35
2022-11-07T06:46:40.273Z,11.36
2022-11-07T06:47:40.481Z,11.38
2022-11-07T06:48:40.716Z,11.39
2022-11-07T06:49:40.956Z,11.39
2022-11-07T06:50:41.172Z,11.39
2022-11-07T06:51:44.046Z,11.38
2022-11-07T06:52:41.634Z,11.35
2022-11-07T06:53:41.776Z,11.35
2022-11-07T06:54:39.994Z,11.35
2022-11-07T06:55:40.176Z,11.38
2022-11-07T06:56:40.395Z,11.38
2022-11-07T06:57:40.604Z,11.42
2022-11-07T06:58:40.986Z,11.46
2022-11-07T06:59:39.984Z,11.46
2022-11-07T07:00:40.243Z,11.46
2022-11-07T07:01:40.630Z,11.46
2022-11-07T07:03:41.858Z,11.48
2022-11-07T07:04:39.994Z,11.54
2022-11-07T07:05:40.204Z,11.54
2022-11-07T07:06:40.429Z,11.54
2022-11-07T07:07:40.636Z,11.56
2022-11-07T07:08:39.797Z,11.53
2022-11-07T07:09:42.166Z,11.53
2022-11-07T07:10:40.220Z,11.51
2022-11-07T07:11:40.450Z,11.53
2022-11-07T07:12:40.666Z,11.49
2022-11-07T07:13:39.870Z,11.48
2022-11-07T07:14:40.108Z,11.49
2022-11-07T07:15:50.277Z,11.53
2022-11-07T07:16:41.528Z,11.54
2022-11-07T07:17:40.770Z,11.60
2022-11-07T07:18:39.965Z,11.64
2022-11-07T07:19:40.180Z,11.62
2022-11-07T07:20:40.398Z,11.59
2022-11-07T07:21:39.557Z,11.57
2022-11-07T07:22:39.767Z,11.54
2022-11-07T07:23:39.976Z,11.51
2022-11-07T07:24:40.196Z,11.53
2022-11-07T07:25:40.417Z,11.54
2022-11-07T07:26:39.636Z,11.56
2022-11-07T07:27:39.807Z,11.59
2022-11-07T07:28:40.043Z,11.62
2022-11-07T07:29:40.250Z,11.59
2022-11-07T07:30:40.455Z,11.57
2022-11-07T07:31:39.648Z,11.59
2022-11-07T07:32:39.912Z,11.67
2022-11-07T07:33:40.095Z,11.62
2022-11-07T07:34:40.289Z,11.63
2022-11-07T07:35:39.447Z,11.64
2022-11-07T07:36:39.654Z,11.63
2022-11-07T07:37:40.157Z,11.70
2022-11-07T07:38:40.052Z,11.74
2022-11-07T07:39:40.184Z,11.72
2022-11-07T07:40:40.393Z,11.72
2022-11-07T07:41:40.411Z,11.75
2022-11-07T07:42:39.699Z,11.77
2022-11-07T07:43:39.921Z,11.74
2022-11-07T07:44:40.074Z,11.75
2022-11-07T07:45:40.250Z,11.74
2022-11-07T07:46:40.438Z,11.72
2022-11-07T07:47:39.554Z,11.75
2022-11-07T07:48:39.726Z,11.77
2022-11-07T07:49:40.083Z,11.77
2022-11-07T07:50:40.068Z,11.81
2022-11-07T07:51:39.225Z,11.82
2022-11-07T07:52:39.395Z,11.87
2022-11-07T07:53:39.527Z,11.88
2022-11-07T07:54:39.711Z,11.90
2022-11-07T07:55:39.941Z,11.93
2022-11-07T07:56:40.100Z,11.96
2022-11-07T07:57:39.232Z,11.98
2022-11-07T07:58:39.412Z,12.03
2022-11-07T07:59:39.622Z,12.07
2022-11-07T08:00:39.867Z,12.03
2022-11-07T08:01:40.292Z,12.03
2022-11-07T08:02:39.268Z,12.05
2022-11-07T08:04:00.269Z,12.05
2022-11-07T08:04:40.617Z,12.05
2022-11-07T08:05:39.824Z,12.07
2022-11-07T08:06:40.030Z,12.07
2022-11-07T08:07:39.211Z,12.11
2022-11-07T08:08:39.390Z,12.11
2022-11-07T08:09:39.593Z,12.12
2022-11-07T08:10:42.881Z,12.13
2022-11-07T08:11:40.029Z,12.15
2022-11-07T08:12:39.155Z,12.16
2022-11-07T08:13:39.660Z,12.15
2022-11-07T08:14:39.540Z,12.15
2022-11-07T08:15:39.754Z,12.15
2022-11-07T08:16:39.977Z,12.18
2022-11-07T08:17:39.093Z,12.21
2022-11-07T08:18:39.304Z,12.21
2022-11-07T08:19:39.537Z,12.25
2022-11-07T08:20:39.704Z,12.29
2022-11-07T08:21:38.887Z,12.33
2022-11-07T08:22:39.071Z,12.34
2022-11-07T08:23:39.282Z,12.37
2022-11-07T08:24:39.486Z,12.38
2022-11-07T08:25:39.715Z,12.38
2022-11-07T08:26:38.842Z,12.38
2022-11-07T08:27:38.994Z,12.40
2022-11-07T08:28:39.188Z,12.38
2022-11-07T08:29:39.350Z,12.36
2022-11-07T08:30:39.506Z,12.38
2022-11-07T08:31:38.693Z,12.40
2022-11-07T08:32:38.836Z,12.41
2022-11-07T08:33:39.110Z,12.41
2022-11-07T08:34:39.195Z,12.43
2022-11-07T08:35:42.463Z,12.43
2022-11-07T08:36:39.703Z,12.46
2022-11-07T08:37:39.706Z,12.46
2022-11-07T08:38:38.825Z,12.48
2022-11-07T08:39:39.018Z,12.48
2022-11-07T08:40:39.309Z,12.49
2022-11-07T08:41:39.366Z,12.51
2022-11-07T08:42:39.610Z,12.51
2022-11-07T08:43:38.702Z,12.52
2022-11-07T08:44:39.944Z,12.54
2022-11-07T08:45:39.085Z,12.55
2022-11-07T08:46:39.408Z,12.56
2022-11-07T08:47:38.426Z,12.59
2022-11-07T08:48:38.657Z,12.59
2022-11-07T08:49:38.830Z,12.61
2022-11-07T08:50:39.024Z,12.62
2022-11-07T08:51:39.216Z,12.67
2022-11-07T08:52:39.386Z,12.67
2022-11-07T08:53:38.542Z,12.70
2022-11-07T08:54:38.785Z,12.70
2022-11-07T08:55:38.857Z,12.71
2022-11-07T08:56:39.106Z,12.74
2022-11-07T08:57:39.243Z,12.76
2022-11-07T08:58:38.341Z,12.77
2022-11-07T08:59:38.511Z,12.79
2022-11-07T09:00:38.794Z,12.77
2022-11-07T09:01:56.141Z,12.77
2022-11-07T09:03:58.173Z,12.76
2022-11-07T09:04:39.509Z,12.76
2022-11-07T09:05:38.518Z,12.79
2022-11-07T09:06:38.739Z,12.79
2022-11-07T09:07:38.878Z,12.81
2022-11-07T09:08:39.027Z,12.84
2022-11-07T09:09:38.188Z,12.85
2022-11-07T09:10:38.369Z,12.87
2022-11-07T09:11:38.481Z,12.89
2022-11-07T09:12:38.694Z,12.92
2022-11-07T09:13:38.806Z,12.96
2022-11-07T09:14:38.969Z,12.99
2022-11-07T09:15:39.127Z,13.03
2022-11-07T09:16:38.255Z,13.03
2022-11-07T09:17:39.363Z,13.04
2022-11-07T09:18:38.597Z,13.06
2022-11-07T09:19:38.701Z,13.10
2022-11-07T09:20:38.871Z,13.13
2022-11-07T09:21:39.008Z,13.17
2022-11-07T09:22:38.135Z,13.21
2022-11-07T09:23:38.304Z,13.25
2022-11-07T09:24:38.516Z,13.28
2022-11-07T09:25:38.643Z,13.31
2022-11-07T09:26:38.814Z,13.31
2022-11-07T09:27:38.916Z,13.38
2022-11-07T09:28:39.069Z,13.36
2022-11-07T09:29:38.203Z,13.38
2022-11-07T09:30:38.398Z,13.38
2022-11-07T09:31:38.508Z,13.39
2022-11-07T09:32:44.999Z,13.43
2022-11-07T09:33:39.834Z,13.44
2022-11-07T09:34:37.927Z,13.48
2022-11-07T09:35:38.087Z,13.51
2022-11-07T09:36:38.423Z,13.51
2022-11-07T09:37:38.389Z,13.50
2022-11-07T09:38:38.670Z,13.48
2022-11-07T09:39:39.729Z,13.48
2022-11-07T09:40:37.812Z,13.47
2022-11-07T09:41:37.953Z,13.53
2022-11-07T09:42:38.513Z,13.57
2022-11-07T09:43:38.250Z,13.61
2022-11-07T09:44:38.400Z,13.65
2022-11-07T09:45:38.564Z,13.71
2022-11-07T09:46:37.704Z,13.68
2022-11-07T09:47:37.833Z,13.69
2022-11-07T09:48:38.002Z,13.71
2022-11-07T09:49:38.148Z,13.66
2022-11-07T09:50:38.319Z,13.68
2022-11-07T09:51:38.484Z,13.66
2022-11-07T09:52:39.081Z,13.66
2022-11-07T09:53:37.734Z,13.63
2022-11-07T09:54:37.921Z,13.62
2022-11-07T09:55:38.054Z,13.59
2022-11-07T09:56:38.236Z,13.55
2022-11-07T09:57:39.341Z,13.61
2022-11-07T09:58:38.551Z,13.57
2022-11-07T09:59:37.686Z,13.61
2022-11-07T10:00:38.073Z,13.61
2022-11-07T10:01:38.159Z,13.61
2022-11-07T10:02:38.191Z,13.61
2022-11-07T10:03:38.521Z,13.59
2022-11-07T10:04:37.497Z,13.61
2022-11-07T10:05:37.640Z,13.59
2022-11-07T10:06:37.824Z,13.57
2022-11-07T10:07:37.954Z,13.59
2022-11-07T10:08:38.137Z,13.62
2022-11-07T10:09:38.259Z,13.62
2022-11-07T10:10:37.382Z,13.66
2022-11-07T10:11:37.545Z,13.71
2022-11-07T10:12:43.186Z,13.75
2022-11-07T10:13:38.832Z,13.73
2022-11-07T10:14:38.022Z,13.72
2022-11-07T10:15:38.130Z,13.76
2022-11-07T10:16:38.284Z,13.83
2022-11-07T10:17:38.352Z,13.86
2022-11-07T10:18:37.584Z,13.90
2022-11-07T10:19:37.712Z,13.94
2022-11-07T10:20:37.882Z,13.96
2022-11-07T10:21:39.091Z,13.99
2022-11-07T10:22:38.170Z,13.98
2022-11-07T10:23:37.303Z,13.96
2022-11-07T10:24:38.145Z,13.96
2022-11-07T10:25:37.631Z,13.91
2022-11-07T10:26:37.768Z,13.88
2022-11-07T10:27:37.903Z,13.87
2022-11-07T10:28:38.074Z,13.88
2022-11-07T10:29:41.789Z,13.90
2022-11-07T10:30:38.328Z,13.91
2022-11-07T10:31:37.466Z,13.90
2022-11-07T10:32:37.614Z,13.93
2022-11-07T10:33:37.796Z,13.93
2022-11-07T10:34:37.935Z,13.93
2022-11-07T10:35:37.057Z,13.91
2022-11-07T10:36:37.254Z,13.94
2022-11-07T10:37:37.379Z,13.98
2022-11-07T10:38:37.541Z,13.99
2022-11-07T10:39:37.688Z,13.99
2022-11-07T10:40:37.846Z,14.02
2022-11-07T10:41:36.988Z,14.02
2022-11-07T10:42:37.179Z,14.05
2022-11-07T10:43:37.318Z,14.05
2022-11-07T10:44:37.477Z,14.04
2022-11-07T10:45:37.635Z,14.06
2022-11-07T10:46:37.790Z,14.06
2022-11-07T10:47:38.049Z,14.06
2022-11-07T10:48:37.055Z,14.04
2022-11-07T10:49:37.186Z,14.05
2022-11-07T10:50:37.359Z,14.05
2022-11-07T10:51:37.514Z,14.12
2022-11-07T10:52:37.690Z,14.16
2022-11-07T10:53:37.879Z,14.13
2022-11-07T10:54:36.971Z,14.17
2022-11-07T10:55:37.106Z,14.20
2022-11-07T10:56:38.250Z,14.26
2022-11-07T10:57:37.453Z,14.27
2022-11-07T10:58:37.641Z,14.29
2022-11-07T10:59:37.165Z,14.31
2022-11-07T11:00:36.980Z,14.31
2022-11-07T11:01:37.257Z,14.34
2022-11-07T11:02:37.255Z,14.39
2022-11-07T11:03:44.303Z,14.46
2022-11-07T11:04:39.240Z,14.59
2022-11-07T11:05:37.732Z,14.72
2022-11-07T11:06:36.873Z,14.80
2022-11-07T11:07:37.074Z,14.87
2022-11-07T11:08:37.213Z,14.87
2022-11-07T11:09:37.338Z,14.87
2022-11-07T11:10:37.631Z,14.85
2022-11-07T11:11:36.631Z,14.87
2022-11-07T11:12:36.808Z,14.93
2022-11-07T11:13:36.967Z,14.86
2022-11-07T11:14:37.170Z,14.93
2022-11-07T11:15:37.330Z,14.94
2022-11-07T11:16:38.651Z,14.91
2022-11-07T11:17:36.623Z,14.90
2022-11-07T11:18:36.774Z,14.97
2022-11-07T11:19:36.949Z,14.97
2022-11-07T11:20:37.092Z,14.93
2022-11-07T11:21:37.319Z,14.90
2022-11-07T11:22:37.432Z,14.90
2022-11-07T11:23:36.541Z,14.85
2022-11-07T11:24:36.712Z,14.83
2022-11-07T11:25:36.956Z,14.80
2022-11-07T11:26:37.038Z,14.82
2022-11-07T11:27:37.163Z,14.79
2022-11-07T11:28:37.403Z,14.82
2022-11-07T11:29:39.693Z,14.86
2022-11-07T11:30:36.623Z,14.80
2022-11-07T11:31:36.820Z,14.74
2022-11-07T11:32:36.928Z,14.78
2022-11-07T11:33:37.292Z,14.80
2022-11-07T11:34:36.265Z,14.79
2022-11-07T11:35:41.344Z,14.86
2022-11-07T11:36:37.534Z,14.91
2022-11-07T11:37:36.652Z,14.95
2022-11-07T11:38:36.837Z,15.00
2022-11-07T11:39:36.983Z,15.05
2022-11-07T11:40:37.104Z,15.11
2022-11-07T11:41:36.223Z,15.13
2022-11-07T11:42:36.421Z,15.20
2022-11-07T11:43:36.527Z,15.18
2022-11-07T11:44:36.675Z,15.15
2022-11-07T11:45:36.866Z,15.11
2022-11-07T11:46:37.017Z,15.09
2022-11-07T11:47:37.112Z,15.11
2022-11-07T11:48:36.217Z,15.05
2022-11-07T11:49:36.383Z,15.03
2022-11-07T11:50:36.571Z,15.07
2022-11-07T11:51:36.866Z,15.04
2022-11-07T11:52:36.866Z,14.97
2022-11-07T11:53:37.015Z,14.86
2022-11-07T11:54:36.125Z,14.83
2022-11-07T11:55:36.296Z,14.86
2022-11-07T11:56:36.424Z,14.86
2022-11-07T11:57:36.724Z,14.91
2022-11-07T11:58:36.770Z,14.93
2022-11-07T11:59:36.925Z,14.85
2022-11-07T12:00:36.088Z,14.85
2022-11-07T12:01:36.260Z,14.87
2022-11-07T12:02:36.451Z,14.82
2022-11-07T12:03:36.644Z,14.79
2022-11-07T12:04:36.811Z,14.71
2022-11-07T12:05:35.942Z,14.66
2022-11-07T12:06:36.117Z,14.63
2022-11-07T12:07:36.411Z,14.63
2022-11-07T12:08:36.464Z,14.64
2022-11-07T12:09:36.806Z,14.63
2022-11-07T12:10:36.848Z,14.63
2022-11-07T12:11:35.975Z,14.64
2022-11-07T12:12:36.125Z,14.63
2022-11-07T12:13:36.311Z,14.64
2022-11-07T12:14:36.457Z,14.63
2022-11-07T12:15:36.657Z,14.59
2022-11-07T12:16:35.768Z,14.56
2022-11-07T12:17:35.948Z,14.53
2022-11-07T12:18:36.122Z,14.49
2022-11-07T12:19:36.289Z,14.52
2022-11-07T12:20:36.409Z,14.53
2022-11-07T12:21:36.668Z,14.56
2022-11-07T12:22:35.710Z,14.56
2022-11-07T12:23:35.880Z,14.54
2022-11-07T12:24:36.026Z,14.60
2022-11-07T12:25:36.196Z,14.57
2022-11-07T12:26:36.351Z,14.60
2022-11-07T12:27:35.481Z,14.60
2022-11-07T12:28:36.649Z,14.59
2022-11-07T12:29:35.746Z,14.56
2022-11-07T12:30:35.910Z,14.54
2022-11-07T12:31:36.085Z,14.54
2022-11-07T12:32:36.238Z,14.56
2022-11-07T12:33:36.388Z,14.57
2022-11-07T12:34:35.514Z,14.63
2022-11-07T12:35:35.666Z,14.71
2022-11-07T12:36:35.845Z,14.75
2022-11-07T12:37:35.988Z,14.80
2022-11-07T12:38:36.124Z,14.82
2022-11-07T12:39:36.281Z,14.80
2022-11-07T12:40:35.400Z,14.82
2022-11-07T12:41:35.589Z,14.75
2022-11-07T12:42:35.722Z,14.82
2022-11-07T12:43:35.947Z,14.85
2022-11-07T12:44:36.002Z,14.91
2022-11-07T12:45:36.146Z,14.94
2022-11-07T12:46:36.300Z,14.98
2022-11-07T12:47:35.421Z,15.00
2022-11-07T12:48:35.560Z,14.97
2022-11-07T12:49:35.742Z,14.91
2022-11-07T12:50:35.853Z,14.90
2022-11-07T12:51:36.060Z,14.87
2022-11-07T12:52:36.185Z,14.87
2022-11-07T12:53:35.305Z,14.90
2022-11-07T12:54:35.488Z,14.87
2022-11-07T12:55:35.910Z,14.86